Time;durP1;ratioP1;P1;durP2;ratioP2;P2;SDS_P1;SDS_P2;PMS_P1;PMS_P2;Temp;Humidity;BMP_temperature;BMP_pressure;BME280_temperature;BME280_humidity;BME280_pressure;Samples;Min_cycle;Max_cycle;Signal;HPM_P1;HPM_P2
2023/09/26 00:01:54;;;;;;;22.17;20.97;;;;;;;;;;5014991;28;21299;-79
2023/09/26 00:04:21;;;;;;;21.60;20.40;;;;;;;;;;5014897;28;20937;-80
2023/09/26 00:06:49;;;;;;;21.00;19.90;;;;;;;;;;5014818;28;20812;-80
2023/09/26 00:09:18;;;;;;;21.70;20.60;;;;;;;;;;5015110;28;20515;-79
2023/09/26 00:11:45;;;;;;;21.23;20.13;;;;;;;;;;5019072;28;20518;-79
2023/09/26 00:14:12;;;;;;;22.83;21.43;;;;;;;;;;5025246;28;20459;-79
2023/09/26 00:16:39;;;;;;;21.50;20.40;;;;;;;;;;5026177;28;20456;-80
2023/09/26 00:19:07;;;;;;;22.10;20.90;;;;;;;;;;5027197;28;20470;-80
2023/09/26 00:21:34;;;;;;;21.50;20.40;;;;;;;;;;5026245;28;20508;-80
2023/09/26 00:24:03;;;;;;;21.37;20.27;;;;;;;;;;5027115;28;20434;-79
2023/09/26 00:26:32;;;;;;;22.10;20.77;;;;;;;;;;5020921;28;20511;-81
2023/09/26 00:28:59;;;;;;;22.10;20.70;;;;;;;;;;5026328;28;20467;-78
2023/09/26 00:31:26;;;;;;;22.07;20.87;;;;;;;;;;5027928;28;20464;-81
2023/09/26 00:33:54;;;;;;;21.47;20.27;;;;;;;;;;5019006;28;20480;-79
2023/09/26 00:36:21;;;;;;;22.60;21.17;;;;;;;;;;5014068;28;20427;-79
2023/09/26 00:38:48;;;;;;;23.03;21.50;;;;;;;;;;5017219;28;20455;-80
2023/09/26 00:41:15;;;;;;;22.33;21.03;;;;;;;;;;5034206;28;20489;-80
2023/09/26 00:43:43;;;;;;;21.83;20.73;;;;;;;;;;5515816;22;20508;-79
2023/09/26 00:46:11;;;;;;;21.90;20.80;;;;;;;;;;5013943;28;20457;-79
2023/09/26 00:48:39;;;;;;;22.93;21.63;;;;;;;;;;5010678;28;20955;-80
2023/09/26 00:51:07;;;;;;;22.27;21.03;;;;;;;;;;5015020;28;20507;-79
2023/09/26 00:53:34;;;;;;;22.37;21.17;;;;;;;;;;5014443;28;21117;-79
2023/09/26 00:56:01;;;;;;;23.50;22.10;;;;;;;;;;5013993;28;20424;-80
2023/09/26 00:58:32;;;;;;;21.53;20.43;;;;;;;;;;5013402;28;20459;-80
2023/09/26 01:01:00;;;;;;;23.27;21.97;;;;;;;;;;5014809;28;20524;-79
2023/09/26 01:03:27;;;;;;;22.70;21.40;;;;;;;;;;5013623;28;20460;-80
2023/09/26 01:05:55;;;;;;;22.63;21.47;;;;;;;;;;5014103;28;20426;-80
2023/09/26 01:08:22;;;;;;;22.93;21.60;;;;;;;;;;5016175;28;20452;-79
2023/09/26 01:10:49;;;;;;;22.50;21.30;;;;;;;;;;5017486;28;20460;-80
2023/09/26 01:13:16;;;;;;;23.27;21.87;;;;;;;;;;5017947;28;20443;-79
2023/09/26 01:15:43;;;;;;;22.93;21.73;;;;;;;;;;5017160;28;20416;-79
2023/09/26 01:18:12;;;;;;;22.93;21.63;;;;;;;;;;5018523;28;20821;-80
2023/09/26 01:20:40;;;;;;;26.60;25.00;;;;;;;;;;5018029;28;20981;-80
2023/09/26 01:23:07;;;;;;;23.80;22.00;;;;;;;;;;5017491;28;20439;-80
2023/09/26 01:25:36;;;;;;;23.17;21.77;;;;;;;;;;5017838;28;20426;-79
2023/09/26 01:28:07;;;;;;;22.00;20.80;;;;;;;;;;5017951;28;20435;-79
2023/09/26 01:30:34;;;;;;;23.57;22.10;;;;;;;;;;5018152;28;20436;-78
2023/09/26 01:33:02;;;;;;;22.07;20.73;;;;;;;;;;5017658;28;20443;-80
2023/09/26 01:35:29;;;;;;;23.20;21.80;;;;;;;;;;5017730;28;20426;-80
2023/09/26 01:37:56;;;;;;;22.30;21.00;;;;;;;;;;5017436;28;20456;-79
2023/09/26 01:40:24;;;;;;;23.07;21.23;;;;;;;;;;5017563;28;20812;-79
2023/09/26 01:42:53;;;;;;;22.53;21.33;;;;;;;;;;5017798;28;20570;-80
2023/09/26 01:45:20;;;;;;;22.97;21.67;;;;;;;;;;5017049;28;20455;-79
2023/09/26 01:47:48;;;;;;;22.53;21.33;;;;;;;;;;5017477;28;20456;-79
2023/09/26 01:50:15;;;;;;;22.60;21.30;;;;;;;;;;5017128;28;20419;-80
2023/09/26 01:52:43;;;;;;;22.87;21.47;;;;;;;;;;5017112;28;20477;-79
2023/09/26 01:55:14;;;;;;;22.60;21.03;;;;;;;;;;5017427;28;20423;-78
2023/09/26 01:57:42;;;;;;;22.87;21.57;;;;;;;;;;5015822;28;20490;-79
2023/09/26 02:00:11;;;;;;;21.90;20.70;;;;;;;;;;5017671;28;20460;-79
2023/09/26 02:02:39;;;;;;;21.83;20.53;;;;;;;;;;5017455;28;20965;-80
2023/09/26 02:05:07;;;;;;;22.97;21.63;;;;;;;;;;5017193;28;20419;-79
2023/09/26 02:07:34;;;;;;;23.30;21.90;;;;;;;;;;5016846;28;20423;-79
2023/09/26 02:10:01;;;;;;;22.90;21.60;;;;;;;;;;5017421;28;20442;-79
2023/09/26 02:12:28;;;;;;;23.30;21.90;;;;;;;;;;5016797;28;20435;-79
2023/09/26 02:14:55;;;;;;;22.43;21.23;;;;;;;;;;5017219;28;20441;-79
2023/09/26 02:17:24;;;;;;;22.63;21.43;;;;;;;;;;5016365;28;20448;-79
2023/09/26 02:19:51;;;;;;;22.80;21.50;;;;;;;;;;5015957;28;20530;-80
2023/09/26 02:22:18;;;;;;;22.83;21.53;;;;;;;;;;5016663;28;20484;-79
2023/09/26 02:24:45;;;;;;;23.50;22.13;;;;;;;;;;5016961;28;20423;-79
2023/09/26 02:27:13;;;;;;;24.60;23.03;;;;;;;;;;5015086;28;20517;-80
2023/09/26 02:29:40;;;;;;;22.80;21.50;;;;;;;;;;5015707;28;20462;-79
2023/09/26 02:32:07;;;;;;;23.63;22.33;;;;;;;;;;5012991;28;20481;-80
2023/09/26 02:34:35;;;;;;;23.83;22.23;;;;;;;;;;5015631;28;20441;-79
2023/09/26 02:37:02;;;;;;;23.07;21.77;;;;;;;;;;5014378;28;20512;-79
2023/09/26 02:39:29;;;;;;;24.37;22.73;;;;;;;;;;5015384;28;20431;-79
2023/09/26 02:41:57;;;;;;;23.30;22.00;;;;;;;;;;5014889;28;21090;-80
2023/09/26 02:44:24;;;;;;;23.93;22.53;;;;;;;;;;5015694;28;20447;-80
2023/09/26 02:46:51;;;;;;;22.80;21.50;;;;;;;;;;5014724;28;20773;-79
2023/09/26 02:49:18;;;;;;;23.00;21.70;;;;;;;;;;5015410;28;20519;-80
2023/09/26 02:51:47;;;;;;;23.33;22.03;;;;;;;;;;5015030;28;20435;-79
2023/09/26 02:54:14;;;;;;;25.03;23.30;;;;;;;;;;5015118;28;20431;-79
2023/09/26 02:56:41;;;;;;;25.70;23.80;;;;;;;;;;5014815;28;20514;-80
2023/09/26 02:59:08;;;;;;;25.03;23.20;;;;;;;;;;5010432;28;20474;-79
2023/09/26 03:01:35;;;;;;;24.17;22.67;;;;;;;;;;5015716;28;20484;-79
2023/09/26 03:04:02;;;;;;;23.63;22.30;;;;;;;;;;5015205;28;20476;-79
2023/09/26 03:06:29;;;;;;;23.00;21.70;;;;;;;;;;5015696;28;20506;-79
2023/09/26 03:08:58;;;;;;;23.57;22.27;;;;;;;;;;5015114;28;20462;-79
2023/09/26 03:11:25;;;;;;;22.73;21.40;;;;;;;;;;5016027;28;20451;-79
2023/09/26 03:13:52;;;;;;;24.70;23.20;;;;;;;;;;5015305;28;20473;-80
2023/09/26 03:16:19;;;;;;;23.73;22.37;;;;;;;;;;5015467;28;20455;-79
2023/09/26 03:18:47;;;;;;;24.63;23.20;;;;;;;;;;5014396;28;20491;-79
2023/09/26 03:21:14;;;;;;;23.70;22.30;;;;;;;;;;5014434;28;20513;-80
2023/09/26 03:23:41;;;;;;;24.87;23.37;;;;;;;;;;5015039;28;20479;-78
2023/09/26 03:26:13;;;;;;;23.70;22.40;;;;;;;;;;5014770;28;20427;-78
2023/09/26 03:28:40;;;;;;;23.90;22.37;;;;;;;;;;5014569;28;20426;-80
2023/09/26 03:31:08;;;;;;;23.90;22.37;;;;;;;;;;5013387;28;20457;-78
2023/09/26 03:33:38;;;;;;;23.60;22.20;;;;;;;;;;5014649;28;20483;-79
2023/09/26 03:36:05;;;;;;;23.67;22.37;;;;;;;;;;5013649;28;20456;-79
2023/09/26 03:38:32;;;;;;;23.80;22.40;;;;;;;;;;5015303;28;20483;-79
2023/09/26 03:40:59;;;;;;;24.10;22.70;;;;;;;;;;5014937;28;20451;-79
2023/09/26 03:43:28;;;;;;;25.07;23.57;;;;;;;;;;5015099;28;20455;-79
2023/09/26 03:45:55;;;;;;;23.63;22.10;;;;;;;;;;5014824;28;20428;-80
2023/09/26 03:48:22;;;;;;;23.40;22.00;;;;;;;;;;5014877;28;20427;-79
2023/09/26 03:50:49;;;;;;;23.13;21.83;;;;;;;;;;5014561;28;20448;-79
2023/09/26 03:53:16;;;;;;;23.37;22.10;;;;;;;;;;5013816;28;20450;-79
2023/09/26 03:55:43;;;;;;;23.03;21.63;;;;;;;;;;5013482;28;20431;-79
2023/09/26 03:58:10;;;;;;;23.37;22.07;;;;;;;;;;5013679;28;20461;-79
2023/09/26 04:00:39;;;;;;;23.27;21.97;;;;;;;;;;5014274;28;20423;-79
2023/09/26 04:03:06;;;;;;;24.13;22.63;;;;;;;;;;5013974;28;20997;-78
2023/09/26 04:05:33;;;;;;;25.33;23.73;;;;;;;;;;5001205;28;20451;-80
2023/09/26 04:08:00;;;;;;;23.60;22.30;;;;;;;;;;5013936;28;20790;-79
2023/09/26 04:10:27;;;;;;;24.50;22.87;;;;;;;;;;5013859;28;20783;-79
2023/09/26 04:12:54;;;;;;;24.00;22.60;;;;;;;;;;5014494;28;20486;-79
2023/09/26 04:15:21;;;;;;;23.13;21.73;;;;;;;;;;5014493;28;20455;-80
2023/09/26 04:17:50;;;;;;;23.60;22.20;;;;;;;;;;5013889;28;20431;-80
2023/09/26 04:20:19;;;;;;;23.00;21.60;;;;;;;;;;5012243;28;20503;-78
2023/09/26 04:22:47;;;;;;;23.60;22.17;;;;;;;;;;5006382;28;20491;-80
2023/09/26 04:25:14;;;;;;;23.83;22.43;;;;;;;;;;5012652;28;20515;-80
2023/09/26 04:27:42;;;;;;;26.07;24.20;;;;;;;;;;5012146;28;20464;-80
2023/09/26 04:30:12;;;;;;;24.03;22.53;;;;;;;;;;5010261;28;20839;-79
2023/09/26 04:35:11;;;;;;;24.00;22.50;;;;;;;;;;5013378;28;20476;-79
2023/09/26 04:37:38;;;;;;;23.40;22.10;;;;;;;;;;5030383;28;20455;-80
2023/09/26 04:40:09;;;;;;;24.17;22.77;;;;;;;;;;5013263;28;20445;-80
2023/09/26 04:42:36;;;;;;;23.47;22.07;;;;;;;;;;5013699;28;20496;-78
2023/09/26 04:45:05;;;;;;;23.87;22.47;;;;;;;;;;5023466;28;20463;-80
2023/09/26 04:47:32;;;;;;;24.00;22.70;;;;;;;;;;5017557;28;20459;-79
2023/09/26 04:49:59;;;;;;;24.10;22.60;;;;;;;;;;5019353;28;20915;-78
2023/09/26 04:52:28;;;;;;;22.17;20.97;;;;;;;;;;5016508;28;20439;-79
2023/09/26 04:54:56;;;;;;;23.53;22.23;;;;;;;;;;5018558;28;20461;-79
2023/09/26 04:57:23;;;;;;;22.50;21.07;;;;;;;;;;5023676;28;20455;-79
2023/09/26 04:59:50;;;;;;;23.80;22.40;;;;;;;;;;5025910;28;20463;-79
2023/09/26 05:04:53;;;;;;;23.50;21.80;;;;;;;;;;5139286;22;20456;-80
2023/09/26 05:07:20;;;;;;;22.23;21.00;;;;;;;;;;4984786;28;20441;-79
2023/09/26 05:09:49;;;;;;;22.07;20.83;;;;;;;;;;4981334;28;20433;-80
2023/09/26 05:12:16;;;;;;;23.23;21.83;;;;;;;;;;4981343;28;20486;-80
2023/09/26 05:14:43;;;;;;;23.90;22.30;;;;;;;;;;4989407;28;20799;-79
2023/09/26 05:17:10;;;;;;;23.80;22.30;;;;;;;;;;4982742;28;20429;-79
2023/09/26 05:19:37;;;;;;;23.50;22.20;;;;;;;;;;4983279;28;20433;-80
2023/09/26 05:24:40;;;;;;;23.00;21.70;;;;;;;;;;5233996;23;20460;-80
2023/09/26 05:27:09;;;;;;;22.60;21.30;;;;;;;;;;4997217;28;20431;-79
2023/09/26 05:29:36;;;;;;;22.83;21.63;;;;;;;;;;4997333;28;20472;-80
2023/09/26 05:32:03;;;;;;;23.57;22.20;;;;;;;;;;4995683;28;20469;-78
2023/09/26 05:34:30;;;;;;;24.40;23.10;;;;;;;;;;4985276;28;20473;-79
2023/09/26 05:36:58;;;;;;;23.87;22.27;;;;;;;;;;4999158;28;20457;-80
2023/09/26 05:39:25;;;;;;;24.10;22.60;;;;;;;;;;4990509;28;20432;-81
2023/09/26 05:41:53;;;;;;;24.10;22.50;;;;;;;;;;4995341;28;20488;-78
2023/09/26 05:44:22;;;;;;;25.00;23.30;;;;;;;;;;4993827;28;20452;-77
2023/09/26 05:46:49;;;;;;;24.13;22.73;;;;;;;;;;4988846;28;20455;-77
2023/09/26 05:49:16;;;;;;;23.80;22.50;;;;;;;;;;4984963;28;20443;-78
2023/09/26 05:51:44;;;;;;;23.33;21.87;;;;;;;;;;4991056;28;20965;-77
2023/09/26 05:54:11;;;;;;;23.43;22.13;;;;;;;;;;4994356;28;20996;-77
2023/09/26 05:56:40;;;;;;;23.77;22.37;;;;;;;;;;4993550;28;20428;-77
2023/09/26 05:59:07;;;;;;;24.30;22.77;;;;;;;;;;4993165;28;20443;-78
2023/09/26 06:01:36;;;;;;;23.03;21.60;;;;;;;;;;4991799;28;20431;-78
2023/09/26 06:04:03;;;;;;;23.00;21.60;;;;;;;;;;4989461;28;20776;-78
2023/09/26 06:06:30;;;;;;;23.47;22.00;;;;;;;;;;4990800;28;20791;-77
2023/09/26 06:08:57;;;;;;;23.40;22.00;;;;;;;;;;4993802;28;20488;-78
2023/09/26 06:11:24;;;;;;;23.47;21.90;;;;;;;;;;4991028;28;20439;-79
2023/09/26 06:13:52;;;;;;;24.33;22.87;;;;;;;;;;4978304;28;20807;-77
2023/09/26 06:16:21;;;;;;;22.97;21.63;;;;;;;;;;4992337;28;20496;-77
2023/09/26 06:18:50;;;;;;;24.47;23.07;;;;;;;;;;4974244;28;20501;-77
2023/09/26 06:21:18;;;;;;;23.40;22.00;;;;;;;;;;4993507;28;20472;-76
2023/09/26 06:23:47;;;;;;;23.50;22.13;;;;;;;;;;4992028;28;20522;-77
2023/09/26 06:26:14;;;;;;;26.60;24.83;;;;;;;;;;4992779;28;20924;-79
2023/09/26 06:28:41;;;;;;;25.60;23.80;;;;;;;;;;4973939;28;20445;-77
2023/09/26 06:31:09;;;;;;;24.33;22.83;;;;;;;;;;4977756;28;20429;-77
2023/09/26 06:33:37;;;;;;;24.80;23.20;;;;;;;;;;5458875;23;20508;-77
2023/09/26 06:36:13;;;;;;;23.63;22.00;;;;;;;;;;4992874;28;20452;-77
2023/09/26 06:38:40;;;;;;;24.00;22.43;;;;;;;;;;4993074;28;20451;-77
2023/09/26 06:41:07;;;;;;;24.23;22.63;;;;;;;;;;5002798;28;20785;-78
2023/09/26 06:43:36;;;;;;;22.97;21.63;;;;;;;;;;4992896;28;20861;-78
2023/09/26 06:46:09;;;;;;;23.47;21.97;;;;;;;;;;4992515;28;20443;-78
2023/09/26 06:48:37;;;;;;;22.13;20.93;;;;;;;;;;4993297;28;20412;-77
2023/09/26 06:51:04;;;;;;;23.30;21.87;;;;;;;;;;4993260;28;20831;-77
2023/09/26 06:53:33;;;;;;;22.27;21.07;;;;;;;;;;4993219;28;20545;-78
2023/09/26 06:56:01;;;;;;;23.80;22.40;;;;;;;;;;4992813;28;20791;-78
2023/09/26 06:58:29;;;;;;;23.03;21.63;;;;;;;;;;4992921;28;21114;-78
2023/09/26 07:00:56;;;;;;;23.10;21.90;;;;;;;;;;4994481;28;20461;-79
2023/09/26 07:03:22;;;;;;;22.63;21.37;;;;;;;;;;4994804;28;20460;-79
2023/09/26 07:05:49;;;;;;;23.60;22.10;;;;;;;;;;4994071;28;20480;-79
2023/09/26 07:08:16;;;;;;;22.03;20.83;;;;;;;;;;4994385;28;20934;-79
2023/09/26 07:10:45;;;;;;;22.80;21.03;;;;;;;;;;4994739;28;20430;-78
2023/09/26 07:13:13;;;;;;;21.63;20.33;;;;;;;;;;4994439;28;20871;-78
2023/09/26 07:15:42;;;;;;;21.73;20.07;;;;;;;;;;5011835;28;20465;-84
2023/09/26 07:18:10;;;;;;;21.87;20.67;;;;;;;;;;5015835;28;20539;-81
2023/09/26 07:20:38;;;;;;;21.70;20.40;;;;;;;;;;5016522;28;20459;-82
2023/09/26 07:23:05;;;;;;;20.17;19.03;;;;;;;;;;5017388;28;20492;-82
2023/09/26 07:25:32;;;;;;;19.70;18.70;;;;;;;;;;5015803;28;20435;-82
2023/09/26 07:28:02;;;;;;;19.07;18.00;;;;;;;;;;4995816;28;20431;-83
2023/09/26 07:30:29;;;;;;;20.93;19.70;;;;;;;;;;4996538;28;20453;-82
2023/09/26 07:32:57;;;;;;;20.30;19.30;;;;;;;;;;4996260;28;20440;-82
2023/09/26 07:35:25;;;;;;;20.93;19.77;;;;;;;;;;4998967;28;20892;-82
2023/09/26 07:37:52;;;;;;;20.00;19.00;;;;;;;;;;5015315;28;21044;-83
2023/09/26 07:40:20;;;;;;;20.00;18.80;;;;;;;;;;5015451;28;20427;-82
2023/09/26 07:42:47;;;;;;;20.93;19.73;;;;;;;;;;5013128;28;20467;-84
2023/09/26 07:45:16;;;;;;;19.90;18.80;;;;;;;;;;4997169;28;20453;-82
2023/09/26 07:47:44;;;;;;;21.13;19.90;;;;;;;;;;5007774;28;20441;-83
2023/09/26 07:50:11;;;;;;;20.70;19.50;;;;;;;;;;5000709;28;20504;-82
2023/09/26 07:52:39;;;;;;;20.97;19.67;;;;;;;;;;4996482;28;20439;-83
2023/09/26 07:55:06;;;;;;;20.37;19.33;;;;;;;;;;4996907;28;21122;-82
2023/09/26 07:57:33;;;;;;;20.20;19.10;;;;;;;;;;4996010;28;20795;-83
2023/09/26 08:00:01;;;;;;;20.70;19.40;;;;;;;;;;4996626;28;20768;-82
2023/09/26 08:02:29;;;;;;;21.00;19.57;;;;;;;;;;4996228;28;20519;-82
2023/09/26 08:04:56;;;;;;;20.70;19.30;;;;;;;;;;4996330;28;20424;-84
2023/09/26 08:07:23;;;;;;;20.03;18.90;;;;;;;;;;4996756;28;20457;-82
2023/09/26 08:09:51;;;;;;;21.50;20.30;;;;;;;;;;5002445;28;20451;-82
2023/09/26 08:12:20;;;;;;;21.27;19.77;;;;;;;;;;5017074;28;20451;-83
2023/09/26 08:14:48;;;;;;;20.87;19.57;;;;;;;;;;5013566;28;20442;-85
2023/09/26 08:17:15;;;;;;;20.50;19.40;;;;;;;;;;5002061;28;20513;-80
2023/09/26 08:19:44;;;;;;;20.63;19.43;;;;;;;;;;4996616;28;20811;-83
2023/09/26 08:22:11;;;;;;;21.20;19.97;;;;;;;;;;5009030;28;20491;-83
2023/09/26 08:24:39;;;;;;;21.27;20.00;;;;;;;;;;5018705;28;20411;-84
2023/09/26 08:27:06;;;;;;;22.27;20.53;;;;;;;;;;5011770;28;20439;-84
2023/09/26 08:29:34;;;;;;;20.50;19.27;;;;;;;;;;5019034;28;20441;-84
2023/09/26 08:32:01;;;;;;;20.27;19.13;;;;;;;;;;5020104;28;20439;-83
2023/09/26 08:34:28;;;;;;;20.07;18.90;;;;;;;;;;5017055;28;20467;-83
2023/09/26 08:36:57;;;;;;;21.20;20.00;;;;;;;;;;5015099;28;20799;-84
2023/09/26 08:39:25;;;;;;;20.90;19.60;;;;;;;;;;5015656;28;20423;-83
2023/09/26 08:41:53;;;;;;;21.27;20.07;;;;;;;;;;5015575;28;20451;-83
2023/09/26 08:44:20;;;;;;;20.67;19.37;;;;;;;;;;5015954;28;20471;-83
2023/09/26 08:46:47;;;;;;;21.93;20.63;;;;;;;;;;5015313;28;20431;-84
2023/09/26 08:49:14;;;;;;;21.50;20.30;;;;;;;;;;5015544;28;20458;-84
2023/09/26 08:51:41;;;;;;;21.00;19.80;;;;;;;;;;5015673;28;20448;-84
2023/09/26 08:54:10;;;;;;;21.30;19.90;;;;;;;;;;5016225;28;20422;-83
2023/09/26 08:56:37;;;;;;;20.77;19.73;;;;;;;;;;5015035;28;20449;-84
2023/09/26 08:59:04;;;;;;;22.87;21.57;;;;;;;;;;5015464;28;21155;-83
2023/09/26 09:01:31;;;;;;;22.23;20.77;;;;;;;;;;5014769;28;20447;-84
2023/09/26 09:04:03;;;;;;;21.73;20.43;;;;;;;;;;5015675;28;20496;-85
2023/09/26 09:06:30;;;;;;;21.27;19.97;;;;;;;;;;5015314;28;20419;-84
2023/09/26 09:09:08;;;;;;;21.10;19.90;;;;;;;;;;5015678;28;20448;-84
2023/09/26 09:11:36;;;;;;;21.30;20.10;;;;;;;;;;5016078;28;20460;-84
2023/09/26 09:14:03;;;;;;;20.93;19.73;;;;;;;;;;5015611;28;20447;-85
2023/09/26 09:16:30;;;;;;;21.10;19.80;;;;;;;;;;5014151;28;20965;-84
2023/09/26 09:18:58;;;;;;;21.07;19.73;;;;;;;;;;5015471;28;20443;-86
2023/09/26 09:21:27;;;;;;;21.77;20.27;;;;;;;;;;5015736;28;20435;-84
2023/09/26 09:23:55;;;;;;;21.87;20.60;;;;;;;;;;5015711;28;20931;-84
2023/09/26 09:26:23;;;;;;;22.40;21.00;;;;;;;;;;5015014;28;20427;-83
2023/09/26 09:28:55;;;;;;;21.73;20.23;;;;;;;;;;5016202;28;20459;-85
2023/09/26 09:31:24;;;;;;;21.07;19.97;;;;;;;;;;5019503;28;20464;-83
2023/09/26 09:33:55;;;;;;;21.63;20.23;;;;;;;;;;5019476;28;20480;-85
2023/09/26 09:36:24;;;;;;;21.70;20.50;;;;;;;;;;5018851;28;20548;-84
2023/09/26 09:38:52;;;;;;;21.50;20.27;;;;;;;;;;5018272;28;20436;-84
2023/09/26 09:41:20;;;;;;;22.43;21.17;;;;;;;;;;5018570;28;20425;-84
2023/09/26 09:46:49;;;;;;;21.30;20.00;;;;;;;;;;4923706;29;20446;-84
2023/09/26 09:49:20;;;;;;;21.63;20.37;;;;;;;;;;4993853;28;20462;-84
2023/09/26 09:51:50;;;;;;;22.23;20.90;;;;;;;;;;5005631;28;20435;-86
2023/09/26 09:54:19;;;;;;;22.17;20.87;;;;;;;;;;5010354;28;20496;-86
2023/09/26 09:56:47;;;;;;;22.13;20.80;;;;;;;;;;4998716;28;20457;-83
2023/09/26 09:59:16;;;;;;;22.33;21.00;;;;;;;;;;4999558;28;20892;-83
2023/09/26 10:01:45;;;;;;;22.67;21.37;;;;;;;;;;4998310;28;20428;-83
2023/09/26 10:04:15;;;;;;;21.57;20.37;;;;;;;;;;4998667;28;20847;-84
2023/09/26 10:06:43;;;;;;;23.10;21.90;;;;;;;;;;4998332;28;20547;-83
2023/09/26 10:09:11;;;;;;;22.30;21.10;;;;;;;;;;4999968;28;20461;-84
2023/09/26 10:11:39;;;;;;;22.97;21.67;;;;;;;;;;4979428;28;21078;-83
2023/09/26 10:14:06;;;;;;;22.57;21.27;;;;;;;;;;4980013;28;20466;-84
2023/09/26 10:16:33;;;;;;;22.50;21.30;;;;;;;;;;4980107;28;20458;-85
2023/09/26 10:19:01;;;;;;;22.77;21.23;;;;;;;;;;4979007;28;20467;-85
2023/09/26 10:21:30;;;;;;;23.03;21.63;;;;;;;;;;4979129;28;20436;-83
2023/09/26 10:24:16;;;;;;;23.10;21.83;;;;;;;;;;4985728;28;20559;-84
2023/09/26 10:26:44;;;;;;;22.37;21.00;;;;;;;;;;4998661;28;20484;-84
2023/09/26 10:29:12;;;;;;;22.93;21.73;;;;;;;;;;4999808;28;20412;-85
2023/09/26 10:31:41;;;;;;;22.70;21.40;;;;;;;;;;5000371;28;20481;-84
2023/09/26 10:34:08;;;;;;;22.97;21.57;;;;;;;;;;5000213;28;20859;-83
2023/09/26 10:36:37;;;;;;;22.47;21.07;;;;;;;;;;4999291;28;20927;-85
2023/09/26 10:39:05;;;;;;;24.07;22.60;;;;;;;;;;5000827;28;20423;-84
2023/09/26 10:41:33;;;;;;;23.37;22.07;;;;;;;;;;4998945;28;20432;-84
2023/09/26 10:44:01;;;;;;;23.47;22.27;;;;;;;;;;4999085;28;20459;-79
2023/09/26 10:46:28;;;;;;;23.57;22.37;;;;;;;;;;4976184;28;21067;-80
2023/09/26 10:48:57;;;;;;;24.07;22.70;;;;;;;;;;4977922;28;20428;-80
2023/09/26 10:51:24;;;;;;;23.37;22.07;;;;;;;;;;4977348;28;20458;-79
2023/09/26 10:53:53;;;;;;;23.03;21.77;;;;;;;;;;4978151;28;20448;-80
2023/09/26 10:56:20;;;;;;;22.67;21.40;;;;;;;;;;4979093;28;20454;-87
2023/09/26 10:58:47;;;;;;;23.97;21.93;;;;;;;;;;4980609;28;20466;-87
2023/09/26 11:01:14;;;;;;;23.33;22.03;;;;;;;;;;4980400;28;20425;-87
2023/09/26 11:03:41;;;;;;;23.50;22.10;;;;;;;;;;4979933;28;20973;-88
2023/09/26 11:06:08;;;;;;;23.43;22.20;;;;;;;;;;4979762;28;20421;-87
2023/09/26 11:08:36;;;;;;;22.30;21.10;;;;;;;;;;4980645;28;20474;-87
2023/09/26 11:11:05;;;;;;;23.30;21.83;;;;;;;;;;4980177;28;20464;-87
2023/09/26 11:13:32;;;;;;;22.17;20.97;;;;;;;;;;4980308;28;20448;-87
2023/09/26 11:15:59;;;;;;;23.90;21.93;;;;;;;;;;4979306;28;20428;-87
2023/09/26 11:18:26;;;;;;;23.57;22.07;;;;;;;;;;4978239;28;20420;-79
2023/09/26 11:20:53;;;;;;;23.07;21.83;;;;;;;;;;4976887;28;20855;-80
2023/09/26 11:23:35;;;;;;;24.03;22.37;;;;;;;;;;4976675;28;20477;-79
2023/09/26 11:26:03;;;;;;;22.47;21.20;;;;;;;;;;4984755;28;20920;-81
2023/09/26 11:28:32;;;;;;;22.60;21.37;;;;;;;;;;4996944;28;20464;-89
2023/09/26 11:31:00;;;;;;;22.50;21.17;;;;;;;;;;4996892;28;20458;-89
2023/09/26 11:33:27;;;;;;;22.30;21.00;;;;;;;;;;4995477;28;20532;-89
2023/09/26 11:35:55;;;;;;;22.80;21.30;;;;;;;;;;4994962;28;20436;-82
2023/09/26 11:38:22;;;;;;;22.43;21.13;;;;;;;;;;4995790;28;21147;-89
2023/09/26 11:40:55;;;;;;;22.63;21.40;;;;;;;;;;4996037;28;20419;-87
2023/09/26 11:43:22;;;;;;;23.00;21.50;;;;;;;;;;4996912;28;21139;-89
2023/09/26 11:46:01;;;;;;;22.20;20.90;;;;;;;;;;4993184;28;20448;-89
2023/09/26 11:48:28;;;;;;;23.07;21.57;;;;;;;;;;4995698;28;20473;-89
2023/09/26 11:51:04;;;;;;;22.17;20.87;;;;;;;;;;4994904;28;20432;-89
2023/09/26 11:53:31;;;;;;;23.00;21.50;;;;;;;;;;4994432;28;21276;-89
2023/09/26 11:55:59;;;;;;;23.53;22.13;;;;;;;;;;4994493;28;20456;-89
2023/09/26 11:58:26;;;;;;;23.13;21.83;;;;;;;;;;4995445;28;20820;-89
2023/09/26 12:00:55;;;;;;;23.30;21.80;;;;;;;;;;4995612;28;20428;-90
2023/09/26 12:03:22;;;;;;;23.13;21.70;;;;;;;;;;4995080;28;20475;-89
2023/09/26 12:05:49;;;;;;;22.27;21.07;;;;;;;;;;4994308;28;20449;-89
2023/09/26 12:08:17;;;;;;;22.60;21.40;;;;;;;;;;4994817;28;20448;-89
2023/09/26 12:10:44;;;;;;;22.67;21.37;;;;;;;;;;4995433;28;20427;-89
2023/09/26 12:13:11;;;;;;;22.67;21.23;;;;;;;;;;4994685;28;20484;-89
2023/09/26 12:15:38;;;;;;;22.30;20.97;;;;;;;;;;4994992;28;20435;-89
2023/09/26 12:18:07;;;;;;;23.03;21.70;;;;;;;;;;4995451;28;20453;-89
2023/09/26 12:20:35;;;;;;;23.10;21.80;;;;;;;;;;4995455;28;20458;-89
2023/09/26 12:23:02;;;;;;;23.20;21.90;;;;;;;;;;4995206;28;20432;-89
2023/09/26 12:25:30;;;;;;;22.80;21.50;;;;;;;;;;4995107;28;20524;-89
2023/09/26 12:27:57;;;;;;;22.73;21.23;;;;;;;;;;4994639;28;20965;-89
2023/09/26 12:30:24;;;;;;;23.03;21.73;;;;;;;;;;4994531;28;20812;-89
2023/09/26 12:32:51;;;;;;;23.70;22.23;;;;;;;;;;4994842;28;20453;-89
2023/09/26 12:35:21;;;;;;;22.50;20.90;;;;;;;;;;4994161;28;20449;-89
2023/09/26 12:37:49;;;;;;;22.00;20.80;;;;;;;;;;4994612;28;20460;-89
2023/09/26 12:40:23;;;;;;;22.77;21.57;;;;;;;;;;4994703;28;20453;-89
2023/09/26 12:42:51;;;;;;;22.57;21.17;;;;;;;;;;4994230;28;20453;-89
2023/09/26 12:45:18;;;;;;;22.23;20.97;;;;;;;;;;4994663;28;20492;-88
2023/09/26 12:47:46;;;;;;;22.30;21.20;;;;;;;;;;4994076;28;20423;-89
2023/09/26 12:50:25;;;;;;;23.47;22.07;;;;;;;;;;4995206;28;20431;-89
2023/09/26 12:52:56;;;;;;;23.00;21.50;;;;;;;;;;4995460;28;20451;-89
2023/09/26 12:55:23;;;;;;;24.03;22.50;;;;;;;;;;5010213;28;20441;-84
2023/09/26 12:57:53;;;;;;;23.83;22.30;;;;;;;;;;4999578;28;20916;-89
2023/09/26 13:00:20;;;;;;;22.77;21.47;;;;;;;;;;5007069;28;20488;-89
2023/09/26 13:02:47;;;;;;;21.97;20.67;;;;;;;;;;4996192;28;20481;-89
2023/09/26 13:05:14;;;;;;;22.37;21.00;;;;;;;;;;4997418;28;20493;-89
2023/09/26 13:07:42;;;;;;;23.43;22.13;;;;;;;;;;4997314;28;20460;-90
2023/09/26 13:10:11;;;;;;;21.83;20.53;;;;;;;;;;5011369;28;20780;-90
2023/09/26 13:12:39;;;;;;;22.57;21.27;;;;;;;;;;5006409;28;20462;-90
2023/09/26 13:15:08;;;;;;;23.40;22.00;;;;;;;;;;4997791;28;20476;-90
2023/09/26 13:17:35;;;;;;;23.00;21.70;;;;;;;;;;4996739;28;20469;-89
2023/09/26 13:20:05;;;;;;;23.20;21.43;;;;;;;;;;4997756;28;20535;-90
2023/09/26 13:22:32;;;;;;;23.97;22.67;;;;;;;;;;5009800;28;20962;-90
2023/09/26 13:24:59;;;;;;;23.80;22.33;;;;;;;;;;4997859;28;20479;-90
2023/09/26 13:27:27;;;;;;;22.80;21.60;;;;;;;;;;4996791;28;20440;-89
2023/09/26 13:29:55;;;;;;;22.03;20.80;;;;;;;;;;4996896;28;20412;-90
2023/09/26 13:32:24;;;;;;;22.87;21.47;;;;;;;;;;4997663;28;20439;-89
2023/09/26 13:34:51;;;;;;;23.37;22.07;;;;;;;;;;4999928;28;20465;-89
2023/09/26 13:37:18;;;;;;;22.97;21.67;;;;;;;;;;4997323;28;20464;-89
2023/09/26 13:39:45;;;;;;;23.80;22.40;;;;;;;;;;4996801;28;20481;-90
2023/09/26 13:42:12;;;;;;;23.20;21.90;;;;;;;;;;5001073;28;20444;-90
2023/09/26 13:44:41;;;;;;;23.17;21.87;;;;;;;;;;4997500;28;20481;-90
2023/09/26 13:47:08;;;;;;;23.73;22.30;;;;;;;;;;4997168;28;20434;-89
2023/09/26 13:50:04;;;;;;;23.03;21.83;;;;;;;;;;4997085;28;20457;-89
2023/09/26 13:52:31;;;;;;;23.50;22.20;;;;;;;;;;4997565;28;20872;-90
2023/09/26 13:55:06;;;;;;;23.00;21.80;;;;;;;;;;4996290;28;20441;-90
2023/09/26 13:57:33;;;;;;;23.87;22.57;;;;;;;;;;4996985;28;20421;-89
2023/09/26 14:00:02;;;;;;;22.77;21.57;;;;;;;;;;4997281;28;20416;-90
2023/09/26 14:02:29;;;;;;;22.50;21.20;;;;;;;;;;4997327;28;20444;-90
2023/09/26 14:04:56;;;;;;;23.33;22.00;;;;;;;;;;4997166;28;20460;-88
2023/09/26 14:07:23;;;;;;;23.70;22.40;;;;;;;;;;4996601;28;21261;-89
2023/09/26 14:10:05;;;;;;;23.03;21.73;;;;;;;;;;4997094;28;20547;-89
2023/09/26 14:12:32;;;;;;;23.17;21.83;;;;;;;;;;4996674;28;20458;-89
2023/09/26 14:14:59;;;;;;;22.93;21.57;;;;;;;;;;4996252;28;20453;-89
2023/09/26 14:17:27;;;;;;;23.00;21.70;;;;;;;;;;4995467;28;20441;-90
2023/09/26 14:19:55;;;;;;;23.10;21.70;;;;;;;;;;4996661;28;20438;-89
2023/09/26 14:22:22;;;;;;;22.63;21.13;;;;;;;;;;4996912;28;20556;-89
2023/09/26 14:24:49;;;;;;;22.70;21.50;;;;;;;;;;4996748;28;20484;-89
2023/09/26 14:27:16;;;;;;;23.43;22.13;;;;;;;;;;4996228;28;20458;-90
2023/09/26 14:29:43;;;;;;;23.80;22.40;;;;;;;;;;4996729;28;20409;-90
2023/09/26 14:32:10;;;;;;;23.57;22.17;;;;;;;;;;5011680;28;20481;-89